createdAt,value
2022-12-29T00:03:53.297Z,2.28
2022-12-29T00:08:52.417Z,2.95
2022-12-29T00:14:10.808Z,0.98
2022-12-29T00:19:30.531Z,1.52
2022-12-29T00:24:47.652Z,2.45
2022-12-29T00:30:05.088Z,2.17
2022-12-29T00:35:09.913Z,1.00
2022-12-29T00:40:27.751Z,1.83
2022-12-29T00:45:26.540Z,1.38
2022-12-29T00:50:25.523Z,2.45
2022-12-29T00:55:24.368Z,1.25
2022-12-29T01:00:23.132Z,2.10
2022-12-29T01:05:21.874Z,1.00
2022-12-29T01:10:20.626Z,1.40
2022-12-29T01:15:19.515Z,0.95
2022-12-29T01:20:18.410Z,1.02
2022-12-29T01:25:17.248Z,1.70
2022-12-29T01:30:17.037Z,1.90
2022-12-29T01:35:17.199Z,1.40
2022-12-29T01:40:17.203Z,1.35
2022-12-29T01:45:19.096Z,3.28
2022-12-29T01:50:29.769Z,1.30
2022-12-29T01:55:32.464Z,3.05
2022-12-29T02:00:31.473Z,1.80
2022-12-29T02:05:38.832Z,2.03
2022-12-29T02:10:38.613Z,1.27
2022-12-29T02:15:58.736Z,0.98
2022-12-29T02:21:20.480Z,3.80
2022-12-29T02:26:44.148Z,1.75
2022-12-29T02:31:53.684Z,0.98
2022-12-29T02:36:55.543Z,1.40
2022-12-29T02:42:03.307Z,1.70
2022-12-29T02:47:09.881Z,2.97
2022-12-29T02:52:28.776Z,2.05
2022-12-29T02:57:27.539Z,2.80
2022-12-29T03:02:47.767Z,1.25
2022-12-29T03:07:59.269Z,1.23
2022-12-29T03:13:27.221Z,1.42
2022-12-29T03:18:35.615Z,1.92
2022-12-29T03:23:36.869Z,1.55
2022-12-29T03:28:44.335Z,1.02
2022-12-29T03:33:48.767Z,1.90
2022-12-29T03:39:09.453Z,2.47
2022-12-29T03:44:09.252Z,3.40
2022-12-29T03:49:08.014Z,1.83
2022-12-29T03:54:07.341Z,1.63
2022-12-29T03:59:06.436Z,0.70
2022-12-29T04:04:11.340Z,1.80
2022-12-29T04:09:11.264Z,2.10
2022-12-29T04:14:16.562Z,2.22
2022-12-29T04:19:17.885Z,3.50
2022-12-29T04:24:18.894Z,1.67
2022-12-29T04:29:20.525Z,1.42
2022-12-29T04:34:39.557Z,1.13
2022-12-29T04:39:38.500Z,3.25
2022-12-29T04:44:44.896Z,1.50
2022-12-29T04:49:49.432Z,1.40
2022-12-29T04:55:12.914Z,1.15
2022-12-29T05:00:13.686Z,1.98
2022-12-29T05:05:12.806Z,1.67
2022-12-29T05:10:15.107Z,1.38
2022-12-29T05:15:15.957Z,1.10
2022-12-29T05:20:16.457Z,1.88
2022-12-29T05:25:16.292Z,1.50
2022-12-29T05:30:37.849Z,0.88
2022-12-29T05:35:36.675Z,5.63
2022-12-29T05:40:35.715Z,2.55
2022-12-29T05:45:38.670Z,2.95
2022-12-29T05:51:01.793Z,2.30
2022-12-29T05:56:10.781Z,1.63
2022-12-29T06:01:09.993Z,2.92
2022-12-29T06:06:09.928Z,1.58
2022-12-29T06:11:09.390Z,1.35
2022-12-29T06:16:08.660Z,2.60
2022-12-29T06:21:09.666Z,1.23
2022-12-29T06:26:09.053Z,1.83
2022-12-29T06:31:11.089Z,1.48
2022-12-29T06:36:09.887Z,1.30
2022-12-29T06:41:08.716Z,1.30
2022-12-29T06:46:07.513Z,2.72
2022-12-29T06:51:06.283Z,1.35
2022-12-29T06:56:05.527Z,1.15
2022-12-29T07:01:04.540Z,1.38
2022-12-29T07:06:03.546Z,1.35
2022-12-29T07:11:02.374Z,2.40
2022-12-29T07:16:06.574Z,1.02
2022-12-29T07:21:05.581Z,0.95
2022-12-29T07:26:06.523Z,0.75
2022-12-29T07:31:07.184Z,0.45
2022-12-29T07:36:06.341Z,1.50
2022-12-29T07:41:05.530Z,0.95
2022-12-29T07:46:04.682Z,1.35
2022-12-29T07:51:03.558Z,1.33
2022-12-29T07:56:02.418Z,1.52
2022-12-29T08:01:01.204Z,1.67
2022-12-29T08:05:59.967Z,0.70
2022-12-29T08:10:58.693Z,1.15
2022-12-29T08:15:59.796Z,4.00
2022-12-29T08:21:04.030Z,4.07
2022-12-29T08:26:05.423Z,3.28
2022-12-29T08:31:04.377Z,4.20
2022-12-29T08:36:05.494Z,3.10
2022-12-29T08:41:04.558Z,2.80
2022-12-29T08:46:03.348Z,3.72
2022-12-29T08:51:02.176Z,1.88
2022-12-29T08:56:05.215Z,1.63
2022-12-29T09:01:12.885Z,2.05
2022-12-29T09:06:11.692Z,1.27
2022-12-29T09:11:18.800Z,1.42
2022-12-29T09:16:18.212Z,1.52
2022-12-29T09:21:18.187Z,1.02
2022-12-29T09:26:17.008Z,2.15
2022-12-29T09:31:15.792Z,2.65
2022-12-29T09:36:14.669Z,2.13
2022-12-29T09:41:22.166Z,1.17
2022-12-29T09:46:28.474Z,4.85
2022-12-29T09:51:28.465Z,1.38
2022-12-29T09:56:28.945Z,1.67
2022-12-29T10:01:38.163Z,1.10
2022-12-29T10:07:27.528Z,2.00
2022-12-29T10:12:24.085Z,2.00
2022-12-29T10:17:22.888Z,2.55
2022-12-29T10:22:46.301Z,1.35
2022-12-29T10:27:49.306Z,1.20
2022-12-29T10:33:04.436Z,1.20
2022-12-29T10:38:21.595Z,0.88
2022-12-29T10:43:26.609Z,1.52
2022-12-29T10:48:33.459Z,0.60
2022-12-29T10:53:56.543Z,1.20
2022-12-29T10:58:58.417Z,0.93
2022-12-29T11:04:06.991Z,0.80
2022-12-29T11:09:41.486Z,1.85
2022-12-29T11:14:42.636Z,1.23
2022-12-29T11:19:41.500Z,0.65
2022-12-29T11:24:47.420Z,3.13
2022-12-29T11:29:46.313Z,2.13
2022-12-29T11:34:45.320Z,1.70
2022-12-29T11:39:57.828Z,1.50
2022-12-29T11:44:56.762Z,1.73
2022-12-29T11:50:05.417Z,1.67
2022-12-29T11:55:08.413Z,1.60
2022-12-29T12:00:22.471Z,1.50
2022-12-29T12:05:46.534Z,3.35
2022-12-29T12:10:50.329Z,3.10
2022-12-29T12:16:07.048Z,4.38
2022-12-29T12:21:19.650Z,3.80
2022-12-29T12:26:33.747Z,1.20
2022-12-29T12:32:26.532Z,1.23
2022-12-29T12:37:58.851Z,4.10
2022-12-29T12:43:24.031Z,1.77
2022-12-29T12:48:47.345Z,2.17
2022-12-29T12:54:01.643Z,1.90
2022-12-29T12:59:26.235Z,1.50
2022-12-29T13:04:35.426Z,1.00
2022-12-29T13:09:57.305Z,2.00
2022-12-29T13:15:21.628Z,1.33
2022-12-29T13:20:55.771Z,2.55
2022-12-29T13:26:06.270Z,2.05
2022-12-29T13:31:22.305Z,1.27
2022-12-29T13:36:25.099Z,1.30
2022-12-29T13:41:40.759Z,1.05
2022-12-29T13:46:47.601Z,2.22
2022-12-29T13:51:53.723Z,1.85
2022-12-29T13:57:27.936Z,1.63
2022-12-29T14:02:39.449Z,3.85
2022-12-29T14:07:39.650Z,1.05
2022-12-29T14:12:44.145Z,1.80
2022-12-29T14:17:43.818Z,3.38
2022-12-29T14:23:17.105Z,2.17
2022-12-29T14:28:26.907Z,2.00
2022-12-29T14:33:30.407Z,1.55
2022-12-29T14:38:31.481Z,1.30
2022-12-29T14:43:30.502Z,1.52
2022-12-29T14:48:36.700Z,1.90
2022-12-29T14:53:49.736Z,2.67
2022-12-29T14:58:58.564Z,1.80
2022-12-29T15:04:02.300Z,1.95
2022-12-29T15:09:07.274Z,3.60
2022-12-29T15:14:39.165Z,2.40
2022-12-29T15:19:38.034Z,3.20
2022-12-29T15:24:43.001Z,1.65
2022-12-29T15:29:44.847Z,1.45
2022-12-29T15:34:45.826Z,1.95
2022-12-29T15:39:44.960Z,1.90
2022-12-29T15:44:45.370Z,1.50
2022-12-29T15:49:46.099Z,1.40
2022-12-29T15:54:44.921Z,1.90
2022-12-29T15:59:47.899Z,3.67
2022-12-29T16:05:15.919Z,3.40
2022-12-29T16:10:23.629Z,2.17
2022-12-29T16:15:23.537Z,2.00
2022-12-29T16:20:35.576Z,2.35
2022-12-29T16:25:38.419Z,0.88
2022-12-29T16:35:45.445Z,1.33
2022-12-29T16:41:04.668Z,2.65
2022-12-29T16:46:03.432Z,1.30
2022-12-29T16:51:14.282Z,1.65
2022-12-29T16:56:20.062Z,2.33
2022-12-29T17:01:22.426Z,2.50
2022-12-29T17:06:23.211Z,1.23
2022-12-29T17:11:59.449Z,1.05
2022-12-29T17:17:03.216Z,1.83
2022-12-29T17:22:02.848Z,1.00
2022-12-29T17:27:01.688Z,0.88
2022-12-29T17:32:02.752Z,1.15
2022-12-29T17:37:01.600Z,1.13
2022-12-29T17:42:00.536Z,1.48
2022-12-29T17:46:59.427Z,0.90
2022-12-29T17:51:58.310Z,2.30
2022-12-29T17:56:57.650Z,1.75
2022-12-29T18:01:56.589Z,1.23
2022-12-29T18:06:55.562Z,1.35
2022-12-29T18:11:54.722Z,2.15
2022-12-29T18:16:53.645Z,2.45
2022-12-29T18:21:52.421Z,1.17
2022-12-29T18:26:51.262Z,1.30
2022-12-29T18:31:50.029Z,2.40
2022-12-29T18:36:48.813Z,1.20
2022-12-29T18:41:47.619Z,3.47
2022-12-29T18:46:46.441Z,3.95
2022-12-29T18:51:45.284Z,2.50
2022-12-29T18:56:44.168Z,2.67
2022-12-29T19:01:43.117Z,3.80
2022-12-29T19:06:42.936Z,4.43
2022-12-29T19:11:41.719Z,5.07
2022-12-29T19:16:41.370Z,3.88
2022-12-29T19:21:40.312Z,3.83
2022-12-29T19:26:40.709Z,5.50
2022-12-29T19:31:39.837Z,3.15
2022-12-29T19:36:38.669Z,5.57
2022-12-29T19:41:37.496Z,7.20
2022-12-29T19:46:36.284Z,11.90
2022-12-29T19:51:35.197Z,10.13
2022-12-29T19:56:34.117Z,13.27
2022-12-29T20:01:33.164Z,10.00
2022-12-29T20:06:32.042Z,8.23
2022-12-29T20:11:30.942Z,6.68
2022-12-29T20:16:29.989Z,7.47
2022-12-29T20:21:28.859Z,8.75
2022-12-29T20:26:29.264Z,6.38
2022-12-29T20:31:34.132Z,5.85
2022-12-29T20:36:34.685Z,5.18
2022-12-29T20:41:34.468Z,5.20
2022-12-29T20:46:41.030Z,5.60
2022-12-29T20:52:06.274Z,8.60
2022-12-29T20:57:03.895Z,4.55
2022-12-29T21:02:02.912Z,1.75
2022-12-29T21:07:01.840Z,1.58
2022-12-29T21:12:00.683Z,2.30
2022-12-29T21:16:59.570Z,1.55
2022-12-29T21:21:58.429Z,1.23
2022-12-29T21:26:57.166Z,1.77
2022-12-29T21:31:57.765Z,1.75
2022-12-29T21:36:59.905Z,0.80
2022-12-29T21:42:00.290Z,1.75
2022-12-29T21:46:59.609Z,1.85
2022-12-29T21:51:58.425Z,1.08
2022-12-29T21:56:57.568Z,0.65
2022-12-29T22:02:15.219Z,1.60
2022-12-29T22:07:32.949Z,3.35
2022-12-29T22:12:50.924Z,1.70
2022-12-29T22:17:52.025Z,0.77
2022-12-29T22:22:50.984Z,0.82
2022-12-29T22:27:55.712Z,0.80
2022-12-29T22:32:58.867Z,2.15
2022-12-29T22:37:57.651Z,1.38
2022-12-29T22:42:56.370Z,1.55
2022-12-29T22:47:55.162Z,0.80
2022-12-29T22:52:54.095Z,2.90
2022-12-29T22:57:52.910Z,1.45
2022-12-29T23:02:51.951Z,2.33
2022-12-29T23:07:50.773Z,1.15
2022-12-29T23:12:49.523Z,2.00
2022-12-29T23:17:48.349Z,3.90
2022-12-29T23:22:47.131Z,2.88
2022-12-29T23:27:45.874Z,1.02
2022-12-29T23:32:44.694Z,2.58
2022-12-29T23:37:43.480Z,1.90
2022-12-29T23:42:42.342Z,3.63
2022-12-29T23:47:41.137Z,2.88
2022-12-29T23:52:39.849Z,2.30
2022-12-29T23:57:38.723Z,1.20
